Terminal Aerodrome Forecast
Issued by NWS

Home | Current Version | Previous Version | Text Only | Print | Product List | Glossary On
Versions: 1 2 3 4 5 6 7 8 9 10 11 12 13 14 15 16 17 18 19 20 21 22 23 24 25 26 27 28 29 30 31 32 33 34 35 36
000
FTUS41 KRNK 231133
TAFBCB
TAF
KBCB 231133Z 2312/2412 00000KT 6SM BR OVC020
     FM231400 VRB03KT P6SM BKN025 OVC050
     FM231600 VRB03KT P6SM VCSH BKN035 OVC050
     FM231900 VRB04KT P6SM VCTS BKN035CB OVC050
     FM240100 00000KT 5SM -DZ BR OVC025
     FM240600 00000KT 3SM -DZ BR OVC015=

USA.gov is the U.S. government's official web portal to all federal, state and local government web resources and services.